sensor_id;sensor_type;location;lat;lon;timestamp;temperature;humidity
7048;DHT22;3565;53.254;10.352;2022-07-23T00:00:10;16.60;99.90
7048;DHT22;3565;53.254;10.352;2022-07-23T00:02:40;16.60;99.90
7048;DHT22;3565;53.254;10.352;2022-07-23T00:05:10;16.60;99.90
7048;DHT22;3565;53.254;10.352;2022-07-23T00:07:40;16.50;99.90
7048;DHT22;3565;53.254;10.352;2022-07-23T00:10:12;16.40;99.90
7048;DHT22;3565;53.254;10.352;2022-07-23T00:12:41;16.40;99.90
7048;DHT22;3565;53.254;10.352;2022-07-23T00:15:11;16.40;99.90
7048;DHT22;3565;53.254;10.352;2022-07-23T00:17:40;16.40;99.90
7048;DHT22;3565;53.254;10.352;2022-07-23T00:20:15;16.40;99.90
7048;DHT22;3565;53.254;10.352;2022-07-23T00:22:48;16.30;99.90
7048;DHT22;3565;53.254;10.352;2022-07-23T00:25:17;16.30;99.90
7048;DHT22;3565;53.254;10.352;2022-07-23T00:27:47;16.30;99.90
7048;DHT22;3565;53.254;10.352;2022-07-23T00:30:16;16.20;99.90
7048;DHT22;3565;53.254;10.352;2022-07-23T00:32:53;16.20;99.90
7048;DHT22;3565;53.254;10.352;2022-07-23T00:35:23;16.10;99.90
7048;DHT22;3565;53.254;10.352;2022-07-23T00:37:53;16.10;99.90
7048;DHT22;3565;53.254;10.352;2022-07-23T00:40:23;16.00;99.90
7048;DHT22;3565;53.254;10.352;2022-07-23T00:42:52;16.00;99.90
7048;DHT22;3565;53.254;10.352;2022-07-23T00:45:22;16.00;99.90
7048;DHT22;3565;53.254;10.352;2022-07-23T00:47:52;15.90;99.90
7048;DHT22;3565;53.254;10.352;2022-07-23T00:50:21;15.80;99.90
7048;DHT22;3565;53.254;10.352;2022-07-23T00:52:51;15.80;99.90
7048;DHT22;3565;53.254;10.352;2022-07-23T00:55:21;15.70;99.90
7048;DHT22;3565;53.254;10.352;2022-07-23T00:57:53;15.70;99.90
7048;DHT22;3565;53.254;10.352;2022-07-23T01:00:25;15.70;99.90
7048;DHT22;3565;53.254;10.352;2022-07-23T01:02:55;15.70;99.90
7048;DHT22;3565;53.254;10.352;2022-07-23T01:05:24;15.70;99.90
7048;DHT22;3565;53.254;10.352;2022-07-23T01:07:54;15.80;99.90
7048;DHT22;3565;53.254;10.352;2022-07-23T01:10:25;15.70;99.90
7048;DHT22;3565;53.254;10.352;2022-07-23T01:13:01;15.70;99.90
7048;DHT22;3565;53.254;10.352;2022-07-23T01:15:32;15.70;99.90
7048;DHT22;3565;53.254;10.352;2022-07-23T01:18:02;15.60;99.90
7048;DHT22;3565;53.254;10.352;2022-07-23T01:30:45;15.50;99.90
7048;DHT22;3565;53.254;10.352;2022-07-23T01:33:15;15.50;99.90
7048;DHT22;3565;53.254;10.352;2022-07-23T01:53:05;15.40;99.90
7048;DHT22;3565;53.254;10.352;2022-07-23T02:00:34;15.30;99.90
7048;DHT22;3565;53.254;10.352;2022-07-23T02:08:01;15.20;99.90
7048;DHT22;3565;53.254;10.352;2022-07-23T02:10:30;15.20;99.90
7048;DHT22;3565;53.254;10.352;2022-07-23T02:15:28;15.10;99.90
7048;DHT22;3565;53.254;10.352;2022-07-23T02:37:46;14.70;99.90
7048;DHT22;3565;53.254;10.352;2022-07-23T02:40:15;14.70;99.90
7048;DHT22;3565;53.254;10.352;2022-07-23T02:57:59;14.50;99.90
7048;DHT22;3565;53.254;10.352;2022-07-23T03:07:54;14.40;99.90
7048;DHT22;3565;53.254;10.352;2022-07-23T03:15:21;14.40;99.90
7048;DHT22;3565;53.254;10.352;2022-07-23T03:17:50;14.30;99.90
7048;DHT22;3565;53.254;10.352;2022-07-23T03:23:16;14.20;99.90
7048;DHT22;3565;53.254;10.352;2022-07-23T03:33:16;14.20;99.90
7048;DHT22;3565;53.254;10.352;2022-07-23T03:38:16;14.10;99.90
7048;DHT22;3565;53.254;10.352;2022-07-23T04:12:55;14.80;99.90
7048;DHT22;3565;53.254;10.352;2022-07-23T04:15:24;14.70;99.90
7048;DHT22;3565;53.254;10.352;2022-07-23T04:22:50;15.70;99.90
7048;DHT22;3565;53.254;10.352;2022-07-23T04:42:41;14.90;99.90
7048;DHT22;3565;53.254;10.352;2022-07-23T04:47:39;14.80;99.90
7048;DHT22;3565;53.254;10.352;2022-07-23T04:55:07;14.90;99.90
7048;DHT22;3565;53.254;10.352;2022-07-23T05:10:06;14.40;99.90
7048;DHT22;3565;53.254;10.352;2022-07-23T05:20:05;14.70;99.90
7048;DHT22;3565;53.254;10.352;2022-07-23T05:30:01;14.80;99.90
7048;DHT22;3565;53.254;10.352;2022-07-23T05:37:28;15.40;99.90
7048;DHT22;3565;53.254;10.352;2022-07-23T05:44:58;15.60;99.90
7048;DHT22;3565;53.254;10.352;2022-07-23T05:49:56;15.90;99.90
7048;DHT22;3565;53.254;10.352;2022-07-23T05:54:53;15.80;99.90
7048;DHT22;3565;53.254;10.352;2022-07-23T05:59:51;15.80;99.90
7048;DHT22;3565;53.254;10.352;2022-07-23T06:09:47;17.00;99.90
7048;DHT22;3565;53.254;10.352;2022-07-23T06:14:45;18.70;99.90
7048;DHT22;3565;53.254;10.352;2022-07-23T06:17:17;18.80;99.90
7048;DHT22;3565;53.254;10.352;2022-07-23T06:19:46;19.60;99.90
7048;DHT22;3565;53.254;10.352;2022-07-23T06:22:15;19.50;99.90
7048;DHT22;3565;53.254;10.352;2022-07-23T06:24:44;19.70;99.90
7048;DHT22;3565;53.254;10.352;2022-07-23T06:27:14;19.60;99.90
7048;DHT22;3565;53.254;10.352;2022-07-23T06:34:40;19.60;99.90
7048;DHT22;3565;53.254;10.352;2022-07-23T06:37:09;19.60;99.90
7048;DHT22;3565;53.254;10.352;2022-07-23T06:39:38;20.00;99.90
7048;DHT22;3565;53.254;10.352;2022-07-23T06:42:07;19.60;99.90
7048;DHT22;3565;53.254;10.352;2022-07-23T06:44:37;19.60;99.90
7048;DHT22;3565;53.254;10.352;2022-07-23T06:52:03;19.80;99.90
7048;DHT22;3565;53.254;10.352;2022-07-23T06:54:33;19.80;99.90
7048;DHT22;3565;53.254;10.352;2022-07-23T06:57:02;20.20;99.90
7048;DHT22;3565;53.254;10.352;2022-07-23T06:59:32;20.00;99.90
7048;DHT22;3565;53.254;10.352;2022-07-23T07:02:03;20.00;99.90
7048;DHT22;3565;53.254;10.352;2022-07-23T07:07:00;21.10;96.00
7048;DHT22;3565;53.254;10.352;2022-07-23T07:09:30;21.20;85.30
7048;DHT22;3565;53.254;10.352;2022-07-23T07:11:59;21.50;53.60
7048;DHT22;3565;53.254;10.352;2022-07-23T07:14:29;21.60;76.50
7048;DHT22;3565;53.254;10.352;2022-07-23T07:16:58;21.30;64.10
7048;DHT22;3565;53.254;10.352;2022-07-23T07:19:27;21.20;70.50
7048;DHT22;3565;53.254;10.352;2022-07-23T07:21:57;22.20;48.10
7048;DHT22;3565;53.254;10.352;2022-07-23T07:24:26;22.90;24.20
7048;DHT22;3565;53.254;10.352;2022-07-23T07:29:42;20.60;67.90
7048;DHT22;3565;53.254;10.352;2022-07-23T07:32:11;20.20;87.70
7048;DHT22;3565;53.254;10.352;2022-07-23T07:34:40;20.00;99.90
7048;DHT22;3565;53.254;10.352;2022-07-23T07:37:09;20.50;96.10
7048;DHT22;3565;53.254;10.352;2022-07-23T07:39:38;20.80;64.50
7048;DHT22;3565;53.254;10.352;2022-07-23T07:42:08;21.20;62.60
7048;DHT22;3565;53.254;10.352;2022-07-23T07:44:37;21.80;33.90
7048;DHT22;3565;53.254;10.352;2022-07-23T07:47:06;22.20;17.00
7048;DHT22;3565;53.254;10.352;2022-07-23T07:49:36;22.40;14.60
7048;DHT22;3565;53.254;10.352;2022-07-23T07:52:06;21.00;39.10
7048;DHT22;3565;53.254;10.352;2022-07-23T07:54:35;20.30;89.30
7048;DHT22;3565;53.254;10.352;2022-07-23T07:57:04;20.50;44.90
7048;DHT22;3565;53.254;10.352;2022-07-23T07:59:36;20.20;56.20
7048;DHT22;3565;53.254;10.352;2022-07-23T08:02:05;20.20;64.70
7048;DHT22;3565;53.254;10.352;2022-07-23T08:07:23;20.50;49.90
7048;DHT22;3565;53.254;10.352;2022-07-23T08:25:59;21.50;11.40
7048;DHT22;3565;53.254;10.352;2022-07-23T08:28:28;21.80;9.20
7048;DHT22;3565;53.254;10.352;2022-07-23T08:31:01;20.90;20.00
7048;DHT22;3565;53.254;10.352;2022-07-23T08:33:30;21.70;13.60
7048;DHT22;3565;53.254;10.352;2022-07-23T08:36:02;21.40;13.20
7048;DHT22;3565;53.254;10.352;2022-07-23T08:38:31;21.40;10.80
7048;DHT22;3565;53.254;10.352;2022-07-23T08:41:01;21.10;14.60
7048;DHT22;3565;53.254;10.352;2022-07-23T08:43:33;21.00;21.30
7048;DHT22;3565;53.254;10.352;2022-07-23T08:48:53;21.60;28.70
7048;DHT22;3565;53.254;10.352;2022-07-23T08:51:26;22.20;9.30
7048;DHT22;3565;53.254;10.352;2022-07-23T08:53:57;22.50;1.00
7048;DHT22;3565;53.254;10.352;2022-07-23T08:56:27;22.00;6.70
7048;DHT22;3565;53.254;10.352;2022-07-23T08:58:56;22.30;2.00
7048;DHT22;3565;53.254;10.352;2022-07-23T09:04:09;22.40;1.00
7048;DHT22;3565;53.254;10.352;2022-07-23T09:06:40;22.30;1.00
7048;DHT22;3565;53.254;10.352;2022-07-23T09:09:20;21.90;7.40
7048;DHT22;3565;53.254;10.352;2022-07-23T09:12:02;21.50;3.70
7048;DHT22;3565;53.254;10.352;2022-07-23T09:14:40;21.20;8.70
7048;DHT22;3565;53.254;10.352;2022-07-23T09:17:11;20.60;35.60
7048;DHT22;3565;53.254;10.352;2022-07-23T09:19:41;20.10;65.10
7048;DHT22;3565;53.254;10.352;2022-07-23T09:22:22;21.10;57.50
7048;DHT22;3565;53.254;10.352;2022-07-23T09:25:10;22.40;21.60
7048;DHT22;3565;53.254;10.352;2022-07-23T09:27:51;23.40;2.50
7048;DHT22;3565;53.254;10.352;2022-07-23T09:30:23;24.40;1.00
7048;DHT22;3565;53.254;10.352;2022-07-23T09:33:09;23.90;1.00
7048;DHT22;3565;53.254;10.352;2022-07-23T09:35:48;23.00;1.00
7048;DHT22;3565;53.254;10.352;2022-07-23T09:38:18;22.30;1.00
7048;DHT22;3565;53.254;10.352;2022-07-23T09:41:04;22.10;1.00
7048;DHT22;3565;53.254;10.352;2022-07-23T09:56:49;22.00;7.90
7048;DHT22;3565;53.254;10.352;2022-07-23T09:59:22;22.70;1.00
7048;DHT22;3565;53.254;10.352;2022-07-23T10:01:53;23.10;1.00
7048;DHT22;3565;53.254;10.352;2022-07-23T10:04:26;22.40;1.00
7048;DHT22;3565;53.254;10.352;2022-07-23T10:06:57;21.50;1.00
7048;DHT22;3565;53.254;10.352;2022-07-23T10:09:29;21.90;1.00
7048;DHT22;3565;53.254;10.352;2022-07-23T10:12:01;21.90;1.00
7048;DHT22;3565;53.254;10.352;2022-07-23T10:14:36;22.40;1.00
7048;DHT22;3565;53.254;10.352;2022-07-23T10:17:06;22.10;1.00
7048;DHT22;3565;53.254;10.352;2022-07-23T10:19:35;22.10;1.00
7048;DHT22;3565;53.254;10.352;2022-07-23T10:22:07;22.00;1.00
7048;DHT22;3565;53.254;10.352;2022-07-23T10:24:55;21.70;1.00
7048;DHT22;3565;53.254;10.352;2022-07-23T10:27:43;21.30;1.00
7048;DHT22;3565;53.254;10.352;2022-07-23T10:30:18;21.30;1.00
7048;DHT22;3565;53.254;10.352;2022-07-23T10:32:52;21.10;1.00
7048;DHT22;3565;53.254;10.352;2022-07-23T10:35:25;21.30;1.00
7048;DHT22;3565;53.254;10.352;2022-07-23T10:38:02;21.40;1.00
7048;DHT22;3565;53.254;10.352;2022-07-23T10:40:28;22.00;1.00
7048;DHT22;3565;53.254;10.352;2022-07-23T10:43:00;22.20;1.00
7048;DHT22;3565;53.254;10.352;2022-07-23T10:45:32;22.20;1.00
7048;DHT22;3565;53.254;10.352;2022-07-23T10:48:15;22.20;1.00
7048;DHT22;3565;53.254;10.352;2022-07-23T10:51:05;22.20;1.00
7048;DHT22;3565;53.254;10.352;2022-07-23T10:53:17;22.90;1.00
7048;DHT22;3565;53.254;10.352;2022-07-23T10:56:05;23.70;1.00
7048;DHT22;3565;53.254;10.352;2022-07-23T10:58:51;23.20;1.00
7048;DHT22;3565;53.254;10.352;2022-07-23T11:04:52;22.30;1.00
7048;DHT22;3565;53.254;10.352;2022-07-23T11:07:21;21.80;1.00
7048;DHT22;3565;53.254;10.352;2022-07-23T11:09:51;21.80;1.00
7048;DHT22;3565;53.254;10.352;2022-07-23T11:39:56;21.90;1.00
7048;DHT22;3565;53.254;10.352;2022-07-23T11:58:55;23.30;1.00
7048;DHT22;3565;53.254;10.352;2022-07-23T12:01:36;23.30;1.00
7048;DHT22;3565;53.254;10.352;2022-07-23T12:04:07;23.30;1.00
7048;DHT22;3565;53.254;10.352;2022-07-23T12:06:42;23.20;1.00
7048;DHT22;3565;53.254;10.352;2022-07-23T12:09:13;22.70;1.00
7048;DHT22;3565;53.254;10.352;2022-07-23T12:11:58;22.90;1.00
7048;DHT22;3565;53.254;10.352;2022-07-23T12:14:31;23.20;1.00
7048;DHT22;3565;53.254;10.352;2022-07-23T12:17:09;23.40;1.00
7048;DHT22;3565;53.254;10.352;2022-07-23T12:19:40;23.60;1.00
7048;DHT22;3565;53.254;10.352;2022-07-23T12:22:11;24.00;1.00
7048;DHT22;3565;53.254;10.352;2022-07-23T12:24:55;24.10;1.00
7048;DHT22;3565;53.254;10.352;2022-07-23T12:27:25;23.90;1.00
7048;DHT22;3565;53.254;10.352;2022-07-23T12:29:55;23.20;1.00
7048;DHT22;3565;53.254;10.352;2022-07-23T12:35:11;22.60;1.00
7048;DHT22;3565;53.254;10.352;2022-07-23T12:37:42;22.20;1.00
7048;DHT22;3565;53.254;10.352;2022-07-23T12:40:27;23.10;1.00
7048;DHT22;3565;53.254;10.352;2022-07-23T12:43:01;23.70;1.00
7048;DHT22;3565;53.254;10.352;2022-07-23T12:45:47;23.40;1.00
7048;DHT22;3565;53.254;10.352;2022-07-23T12:48:19;24.30;1.00
7048;DHT22;3565;53.254;10.352;2022-07-23T12:50:57;24.40;1.00
7048;DHT22;3565;53.254;10.352;2022-07-23T12:53:28;25.30;1.00
7048;DHT22;3565;53.254;10.352;2022-07-23T12:56:04;25.60;1.00
7048;DHT22;3565;53.254;10.352;2022-07-23T12:58:45;25.60;1.00
7048;DHT22;3565;53.254;10.352;2022-07-23T13:01:24;25.50;1.00
7048;DHT22;3565;53.254;10.352;2022-07-23T13:04:03;25.50;1.00
7048;DHT22;3565;53.254;10.352;2022-07-23T13:06:35;25.90;1.00
7048;DHT22;3565;53.254;10.352;2022-07-23T13:09:05;25.20;1.00
7048;DHT22;3565;53.254;10.352;2022-07-23T13:11:34;24.50;1.00
7048;DHT22;3565;53.254;10.352;2022-07-23T13:14:04;24.40;1.00
7048;DHT22;3565;53.254;10.352;2022-07-23T13:16:34;23.10;1.00
7048;DHT22;3565;53.254;10.352;2022-07-23T13:19:03;23.40;1.00
7048;DHT22;3565;53.254;10.352;2022-07-23T13:24:14;22.90;1.00
7048;DHT22;3565;53.254;10.352;2022-07-23T13:26:44;22.90;1.00
7048;DHT22;3565;53.254;10.352;2022-07-23T13:29:14;23.10;1.00
7048;DHT22;3565;53.254;10.352;2022-07-23T13:31:44;23.80;1.00
7048;DHT22;3565;53.254;10.352;2022-07-23T13:34:13;24.30;1.00
7048;DHT22;3565;53.254;10.352;2022-07-23T13:36:43;24.20;1.00
7048;DHT22;3565;53.254;10.352;2022-07-23T13:39:12;23.40;1.00
7048;DHT22;3565;53.254;10.352;2022-07-23T13:41:41;23.50;1.00
7048;DHT22;3565;53.254;10.352;2022-07-23T13:44:10;23.00;1.00
7048;DHT22;3565;53.254;10.352;2022-07-23T13:46:40;22.50;1.00
7048;DHT22;3565;53.254;10.352;2022-07-23T13:49:09;22.10;1.00
7048;DHT22;3565;53.254;10.352;2022-07-23T13:51:38;22.30;1.00
7048;DHT22;3565;53.254;10.352;2022-07-23T13:54:08;22.50;1.00
7048;DHT22;3565;53.254;10.352;2022-07-23T13:56:37;22.60;1.00
7048;DHT22;3565;53.254;10.352;2022-07-23T13:59:06;23.20;1.00
7048;DHT22;3565;53.254;10.352;2022-07-23T14:01:37;23.40;1.00
7048;DHT22;3565;53.254;10.352;2022-07-23T14:04:08;23.50;1.00
7048;DHT22;3565;53.254;10.352;2022-07-23T14:06:37;24.20;1.00
7048;DHT22;3565;53.254;10.352;2022-07-23T14:09:06;24.20;1.00
7048;DHT22;3565;53.254;10.352;2022-07-23T14:11:35;24.50;1.00
7048;DHT22;3565;53.254;10.352;2022-07-23T14:14:05;24.40;1.00
7048;DHT22;3565;53.254;10.352;2022-07-23T14:16:34;24.70;1.00
7048;DHT22;3565;53.254;10.352;2022-07-23T14:19:04;23.70;1.00
7048;DHT22;3565;53.254;10.352;2022-07-23T14:21:39;23.40;1.00
7048;DHT22;3565;53.254;10.352;2022-07-23T14:24:10;24.20;1.00
7048;DHT22;3565;53.254;10.352;2022-07-23T14:26:39;23.90;1.00
7048;DHT22;3565;53.254;10.352;2022-07-23T14:29:10;23.50;1.00
7048;DHT22;3565;53.254;10.352;2022-07-23T14:31:40;23.00;1.00
7048;DHT22;3565;53.254;10.352;2022-07-23T14:34:11;23.80;1.00
7048;DHT22;3565;53.254;10.352;2022-07-23T14:36:40;23.70;1.00
7048;DHT22;3565;53.254;10.352;2022-07-23T14:39:09;24.10;1.00
7048;DHT22;3565;53.254;10.352;2022-07-23T14:41:39;23.70;1.00
7048;DHT22;3565;53.254;10.352;2022-07-23T14:44:09;23.30;1.00
7048;DHT22;3565;53.254;10.352;2022-07-23T14:46:39;23.10;1.00
7048;DHT22;3565;53.254;10.352;2022-07-23T14:49:08;22.60;1.00
7048;DHT22;3565;53.254;10.352;2022-07-23T14:51:38;22.30;1.00
7048;DHT22;3565;53.254;10.352;2022-07-23T14:54:08;22.50;1.00
7048;DHT22;3565;53.254;10.352;2022-07-23T14:56:38;22.70;1.00
7048;DHT22;3565;53.254;10.352;2022-07-23T14:59:08;23.20;1.00
7048;DHT22;3565;53.254;10.352;2022-07-23T15:04:22;23.70;1.00
7048;DHT22;3565;53.254;10.352;2022-07-23T15:06:51;24.60;1.00
7048;DHT22;3565;53.254;10.352;2022-07-23T15:09:20;24.10;1.00
7048;DHT22;3565;53.254;10.352;2022-07-23T15:11:50;23.80;1.00
7048;DHT22;3565;53.254;10.352;2022-07-23T15:14:19;23.60;1.00
7048;DHT22;3565;53.254;10.352;2022-07-23T15:19:40;24.20;1.00
7048;DHT22;3565;53.254;10.352;2022-07-23T15:22:09;24.10;1.00
7048;DHT22;3565;53.254;10.352;2022-07-23T15:24:39;23.60;1.00
7048;DHT22;3565;53.254;10.352;2022-07-23T15:27:08;23.80;1.00
7048;DHT22;3565;53.254;10.352;2022-07-23T15:29:38;23.30;1.00
7048;DHT22;3565;53.254;10.352;2022-07-23T15:32:08;23.70;1.00
7048;DHT22;3565;53.254;10.352;2022-07-23T15:34:39;24.40;1.00
7048;DHT22;3565;53.254;10.352;2022-07-23T15:37:09;24.40;1.00
7048;DHT22;3565;53.254;10.352;2022-07-23T15:39:38;24.80;1.00
7048;DHT22;3565;53.254;10.352;2022-07-23T15:42:08;24.30;1.00
7048;DHT22;3565;53.254;10.352;2022-07-23T15:44:37;24.20;1.00
7048;DHT22;3565;53.254;10.352;2022-07-23T15:47:08;24.50;1.00
7048;DHT22;3565;53.254;10.352;2022-07-23T15:52:24;24.40;1.00
7048;DHT22;3565;53.254;10.352;2022-07-23T15:54:54;24.50;1.00
7048;DHT22;3565;53.254;10.352;2022-07-23T15:57:23;23.60;1.00
7048;DHT22;3565;53.254;10.352;2022-07-23T15:59:53;22.90;1.00
7048;DHT22;3565;53.254;10.352;2022-07-23T16:02:24;23.20;1.00
7048;DHT22;3565;53.254;10.352;2022-07-23T16:04:53;23.20;1.00
7048;DHT22;3565;53.254;10.352;2022-07-23T16:07:23;23.70;1.00
7048;DHT22;3565;53.254;10.352;2022-07-23T16:09:53;24.00;1.00
7048;DHT22;3565;53.254;10.352;2022-07-23T16:12:22;23.80;1.00
7048;DHT22;3565;53.254;10.352;2022-07-23T16:14:53;23.00;1.00
7048;DHT22;3565;53.254;10.352;2022-07-23T16:17:22;23.60;1.00
7048;DHT22;3565;53.254;10.352;2022-07-23T16:19:51;23.80;1.00
7048;DHT22;3565;53.254;10.352;2022-07-23T16:22:21;24.10;1.00
7048;DHT22;3565;53.254;10.352;2022-07-23T16:24:50;24.60;1.00
7048;DHT22;3565;53.254;10.352;2022-07-23T16:27:20;24.80;1.00
7048;DHT22;3565;53.254;10.352;2022-07-23T16:29:49;23.60;1.00
7048;DHT22;3565;53.254;10.352;2022-07-23T16:32:19;22.40;1.00
7048;DHT22;3565;53.254;10.352;2022-07-23T16:34:48;22.60;1.00
7048;DHT22;3565;53.254;10.352;2022-07-23T16:37:19;24.20;1.00
7048;DHT22;3565;53.254;10.352;2022-07-23T16:39:48;24.20;1.00
7048;DHT22;3565;53.254;10.352;2022-07-23T16:42:18;24.20;1.00
7048;DHT22;3565;53.254;10.352;2022-07-23T16:44:47;24.00;1.00
7048;DHT22;3565;53.254;10.352;2022-07-23T16:47:17;23.30;1.00
7048;DHT22;3565;53.254;10.352;2022-07-23T16:49:48;22.50;1.00
7048;DHT22;3565;53.254;10.352;2022-07-23T16:52:17;21.90;1.00
7048;DHT22;3565;53.254;10.352;2022-07-23T16:54:46;21.60;1.00
7048;DHT22;3565;53.254;10.352;2022-07-23T16:57:16;21.90;1.00
7048;DHT22;3565;53.254;10.352;2022-07-23T16:59:49;22.50;1.00
7048;DHT22;3565;53.254;10.352;2022-07-23T17:02:18;22.90;1.00
7048;DHT22;3565;53.254;10.352;2022-07-23T17:04:47;22.60;1.00
7048;DHT22;3565;53.254;10.352;2022-07-23T17:07:17;22.30;1.00
7048;DHT22;3565;53.254;10.352;2022-07-23T17:09:47;22.40;1.00
7048;DHT22;3565;53.254;10.352;2022-07-23T17:12:18;22.40;1.00
7048;DHT22;3565;53.254;10.352;2022-07-23T17:14:47;22.60;1.00
7048;DHT22;3565;53.254;10.352;2022-07-23T17:17:17;22.50;1.00
7048;DHT22;3565;53.254;10.352;2022-07-23T17:19:47;21.90;1.00
7048;DHT22;3565;53.254;10.352;2022-07-23T17:22:19;22.00;1.00
7048;DHT22;3565;53.254;10.352;2022-07-23T17:24:49;22.00;1.00
7048;DHT22;3565;53.254;10.352;2022-07-23T17:27:18;22.40;1.00
7048;DHT22;3565;53.254;10.352;2022-07-23T17:29:48;22.90;1.00
7048;DHT22;3565;53.254;10.352;2022-07-23T17:32:17;23.30;1.00
7048;DHT22;3565;53.254;10.352;2022-07-23T17:34:47;22.80;1.00
7048;DHT22;3565;53.254;10.352;2022-07-23T17:37:16;22.50;1.00
7048;DHT22;3565;53.254;10.352;2022-07-23T17:39:47;22.50;1.00
7048;DHT22;3565;53.254;10.352;2022-07-23T17:42:16;22.50;1.00
7048;DHT22;3565;53.254;10.352;2022-07-23T17:44:45;22.50;1.00
7048;DHT22;3565;53.254;10.352;2022-07-23T17:47:15;22.30;1.00
7048;DHT22;3565;53.254;10.352;2022-07-23T17:49:44;21.90;1.00
7048;DHT22;3565;53.254;10.352;2022-07-23T17:52:14;22.30;1.00
7048;DHT22;3565;53.254;10.352;2022-07-23T17:54:43;22.20;1.00
7048;DHT22;3565;53.254;10.352;2022-07-23T17:57:12;21.90;1.00
7048;DHT22;3565;53.254;10.352;2022-07-23T17:59:42;21.50;1.00
7048;DHT22;3565;53.254;10.352;2022-07-23T18:18:03;19.20;47.30
7048;DHT22;3565;53.254;10.352;2022-07-23T18:23:16;19.30;48.40
7048;DHT22;3565;53.254;10.352;2022-07-23T18:25:46;19.30;58.10
7048;DHT22;3565;53.254;10.352;2022-07-23T18:28:16;19.20;60.60
7048;DHT22;3565;53.254;10.352;2022-07-23T18:30:45;19.20;64.20
7048;DHT22;3565;53.254;10.352;2022-07-23T18:33:14;19.20;64.30
7048;DHT22;3565;53.254;10.352;2022-07-23T18:35:44;19.30;64.30
7048;DHT22;3565;53.254;10.352;2022-07-23T18:38:14;19.10;65.80
7048;DHT22;3565;53.254;10.352;2022-07-23T18:40:46;19.20;67.50
7048;DHT22;3565;53.254;10.352;2022-07-23T18:43:16;19.00;72.40
7048;DHT22;3565;53.254;10.352;2022-07-23T18:45:46;18.90;82.10
7048;DHT22;3565;53.254;10.352;2022-07-23T18:48:18;18.50;90.80
7048;DHT22;3565;53.254;10.352;2022-07-23T18:50:47;18.50;94.90
7048;DHT22;3565;53.254;10.352;2022-07-23T18:53:17;18.40;99.20
7048;DHT22;3565;53.254;10.352;2022-07-23T18:55:46;18.30;99.40
7048;DHT22;3565;53.254;10.352;2022-07-23T18:58:16;18.30;99.90
7048;DHT22;3565;53.254;10.352;2022-07-23T19:00:45;18.30;99.90
7048;DHT22;3565;53.254;10.352;2022-07-23T19:03:15;18.30;99.90
7048;DHT22;3565;53.254;10.352;2022-07-23T19:05:45;18.10;99.90
7048;DHT22;3565;53.254;10.352;2022-07-23T19:08:14;18.00;99.90
7048;DHT22;3565;53.254;10.352;2022-07-23T19:10:44;18.00;99.90
7048;DHT22;3565;53.254;10.352;2022-07-23T19:13:13;18.00;99.90
7048;DHT22;3565;53.254;10.352;2022-07-23T19:15:44;17.90;99.90
7048;DHT22;3565;53.254;10.352;2022-07-23T19:18:14;17.80;99.90
7048;DHT22;3565;53.254;10.352;2022-07-23T19:20:44;17.70;99.90
7048;DHT22;3565;53.254;10.352;2022-07-23T19:23:14;17.70;99.90
7048;DHT22;3565;53.254;10.352;2022-07-23T19:25:44;17.70;99.90
7048;DHT22;3565;53.254;10.352;2022-07-23T19:28:14;17.30;99.90
7048;DHT22;3565;53.254;10.352;2022-07-23T19:30:43;17.30;99.90
7048;DHT22;3565;53.254;10.352;2022-07-23T19:33:13;17.20;99.90
7048;DHT22;3565;53.254;10.352;2022-07-23T19:35:42;17.20;99.90
7048;DHT22;3565;53.254;10.352;2022-07-23T19:38:13;16.90;99.90
7048;DHT22;3565;53.254;10.352;2022-07-23T19:40:43;16.90;99.90
7048;DHT22;3565;53.254;10.352;2022-07-23T19:43:12;16.70;99.90
7048;DHT22;3565;53.254;10.352;2022-07-23T19:45:42;16.60;99.90
7048;DHT22;3565;53.254;10.352;2022-07-23T19:48:11;16.60;99.90
7048;DHT22;3565;53.254;10.352;2022-07-23T19:50:40;16.60;99.90
7048;DHT22;3565;53.254;10.352;2022-07-23T19:53:10;16.40;99.90
7048;DHT22;3565;53.254;10.352;2022-07-23T19:55:39;16.50;99.90
7048;DHT22;3565;53.254;10.352;2022-07-23T19:58:09;16.50;99.90
7048;DHT22;3565;53.254;10.352;2022-07-23T20:00:39;16.40;99.90
7048;DHT22;3565;53.254;10.352;2022-07-23T20:03:08;16.30;99.90
7048;DHT22;3565;53.254;10.352;2022-07-23T20:08:20;16.10;99.90
7048;DHT22;3565;53.254;10.352;2022-07-23T20:10:49;16.20;99.90
7048;DHT22;3565;53.254;10.352;2022-07-23T20:13:18;16.10;99.90
7048;DHT22;3565;53.254;10.352;2022-07-23T20:20:45;16.00;99.90
7048;DHT22;3565;53.254;10.352;2022-07-23T20:28:12;16.00;99.90
7048;DHT22;3565;53.254;10.352;2022-07-23T20:38:07;16.10;99.90
7048;DHT22;3565;53.254;10.352;2022-07-23T20:50:31;15.90;99.90
7048;DHT22;3565;53.254;10.352;2022-07-23T20:53:03;15.80;99.90
7048;DHT22;3565;53.254;10.352;2022-07-23T20:55:34;15.80;99.90
7048;DHT22;3565;53.254;10.352;2022-07-23T21:00:32;15.80;99.90
7048;DHT22;3565;53.254;10.352;2022-07-23T21:05:30;15.80;99.90
7048;DHT22;3565;53.254;10.352;2022-07-23T21:10:48;15.80;99.90
7048;DHT22;3565;53.254;10.352;2022-07-23T21:13:18;15.70;99.90
7048;DHT22;3565;53.254;10.352;2022-07-23T21:15:47;15.70;99.90
7048;DHT22;3565;53.254;10.352;2022-07-23T21:18:17;15.70;99.90
7048;DHT22;3565;53.254;10.352;2022-07-23T21:26:02;15.60;99.90
7048;DHT22;3565;53.254;10.352;2022-07-23T21:28:32;15.50;99.90
7048;DHT22;3565;53.254;10.352;2022-07-23T21:33:43;15.50;99.90
7048;DHT22;3565;53.254;10.352;2022-07-23T21:36:13;15.40;99.90
7048;DHT22;3565;53.254;10.352;2022-07-23T21:38:43;15.40;99.90
7048;DHT22;3565;53.254;10.352;2022-07-23T21:44:00;15.30;99.90
7048;DHT22;3565;53.254;10.352;2022-07-23T21:46:29;15.30;99.90
7048;DHT22;3565;53.254;10.352;2022-07-23T21:48:59;15.30;99.90
7048;DHT22;3565;53.254;10.352;2022-07-23T21:51:28;15.20;99.90
7048;DHT22;3565;53.254;10.352;2022-07-23T21:53:58;15.20;99.90
7048;DHT22;3565;53.254;10.352;2022-07-23T21:56:29;15.20;99.90
7048;DHT22;3565;53.254;10.352;2022-07-23T21:58:58;15.10;99.90
7048;DHT22;3565;53.254;10.352;2022-07-23T22:01:27;15.10;99.90
7048;DHT22;3565;53.254;10.352;2022-07-23T22:03:57;15.00;99.90
7048;DHT22;3565;53.254;10.352;2022-07-23T22:06:26;15.00;99.90
7048;DHT22;3565;53.254;10.352;2022-07-23T22:08:55;15.00;99.90
7048;DHT22;3565;53.254;10.352;2022-07-23T22:11:24;14.90;99.90
7048;DHT22;3565;53.254;10.352;2022-07-23T22:16:42;14.80;99.90
7048;DHT22;3565;53.254;10.352;2022-07-23T22:22:01;14.80;99.90
7048;DHT22;3565;53.254;10.352;2022-07-23T22:24:30;14.80;99.90
7048;DHT22;3565;53.254;10.352;2022-07-23T22:27:00;14.70;99.90
7048;DHT22;3565;53.254;10.352;2022-07-23T22:29:29;14.70;99.90
7048;DHT22;3565;53.254;10.352;2022-07-23T22:34:40;14.60;99.90
7048;DHT22;3565;53.254;10.352;2022-07-23T22:39:50;14.60;99.90
7048;DHT22;3565;53.254;10.352;2022-07-23T22:42:20;14.50;99.90
7048;DHT22;3565;53.254;10.352;2022-07-23T22:47:39;14.50;99.90
7048;DHT22;3565;53.254;10.352;2022-07-23T23:03:48;14.30;99.90
7048;DHT22;3565;53.254;10.352;2022-07-23T23:06:17;14.20;99.90
7048;DHT22;3565;53.254;10.352;2022-07-23T23:11:28;13.90;99.90
7048;DHT22;3565;53.254;10.352;2022-07-23T23:16:42;13.90;99.90
7048;DHT22;3565;53.254;10.352;2022-07-23T23:19:12;13.90;99.90
7048;DHT22;3565;53.254;10.352;2022-07-23T23:21:41;13.80;99.90
7048;DHT22;3565;53.254;10.352;2022-07-23T23:26:54;13.70;99.90